sensor_id;sensor_type;location;lat;lon;timestamp;P1;durP1;ratioP1;P2;durP2;ratioP2
74180;SDS011;62544;50.826;14.354;2023-03-14T00:02:19;10.43;;;4.91;;
74180;SDS011;62544;50.826;14.354;2023-03-14T00:06:43;10.43;;;4.91;;
74180;SDS011;62544;50.826;14.354;2023-03-14T00:11:08;7.82;;;4.16;;
74180;SDS011;62544;50.826;14.354;2023-03-14T00:15:34;7.82;;;4.16;;
74180;SDS011;62544;50.826;14.354;2023-03-14T00:19:55;7.82;;;4.16;;
74180;SDS011;62544;50.826;14.354;2023-03-14T00:24:19;32.01;;;11.42;;
74180;SDS011;62544;50.826;14.354;2023-03-14T00:28:43;32.01;;;11.42;;
74180;SDS011;62544;50.826;14.354;2023-03-14T00:33:07;12.55;;;5.42;;
74180;SDS011;62544;50.826;14.354;2023-03-14T00:37:31;12.55;;;5.42;;
74180;SDS011;62544;50.826;14.354;2023-03-14T00:41:55;5.02;;;3.05;;
74180;SDS011;62544;50.826;14.354;2023-03-14T00:46:19;5.02;;;3.05;;
74180;SDS011;62544;50.826;14.354;2023-03-14T00:50:43;5.18;;;3.28;;
74180;SDS011;62544;50.826;14.354;2023-03-14T00:55:07;5.18;;;3.28;;
74180;SDS011;62544;50.826;14.354;2023-03-14T00:59:31;5.18;;;3.28;;
74180;SDS011;62544;50.826;14.354;2023-03-14T01:03:55;4.03;;;2.77;;
74180;SDS011;62544;50.826;14.354;2023-03-14T01:08:19;4.03;;;2.77;;
74180;SDS011;62544;50.826;14.354;2023-03-14T01:12:43;3.75;;;2.17;;
74180;SDS011;62544;50.826;14.354;2023-03-14T01:17:07;3.75;;;2.17;;
74180;SDS011;62544;50.826;14.354;2023-03-14T01:21:32;3.48;;;2.21;;
74180;SDS011;62544;50.826;14.354;2023-03-14T01:25:55;3.48;;;2.21;;
74180;SDS011;62544;50.826;14.354;2023-03-14T01:30:19;3.48;;;2.21;;
74180;SDS011;62544;50.826;14.354;2023-03-14T01:34:43;4.72;;;2.84;;
74180;SDS011;62544;50.826;14.354;2023-03-14T01:39:07;4.72;;;2.84;;
74180;SDS011;62544;50.826;14.354;2023-03-14T01:43:31;4.15;;;2.95;;
74180;SDS011;62544;50.826;14.354;2023-03-14T01:47:55;4.15;;;2.95;;
74180;SDS011;62544;50.826;14.354;2023-03-14T01:52:23;4.30;;;3.18;;
74180;SDS011;62544;50.826;14.354;2023-03-14T01:56:43;4.30;;;3.18;;
74180;SDS011;62544;50.826;14.354;2023-03-14T02:01:07;3.66;;;2.94;;
74180;SDS011;62544;50.826;14.354;2023-03-14T02:05:34;3.66;;;2.94;;
74180;SDS011;62544;50.826;14.354;2023-03-14T02:09:55;3.66;;;2.94;;
74180;SDS011;62544;50.826;14.354;2023-03-14T02:14:21;4.65;;;3.58;;
74180;SDS011;62544;50.826;14.354;2023-03-14T02:18:43;4.65;;;3.58;;
74180;SDS011;62544;50.826;14.354;2023-03-14T02:23:07;6.48;;;4.55;;
74180;SDS011;62544;50.826;14.354;2023-03-14T02:27:31;6.48;;;4.55;;
74180;SDS011;62544;50.826;14.354;2023-03-14T02:31:55;6.22;;;4.12;;
74180;SDS011;62544;50.826;14.354;2023-03-14T02:36:19;6.22;;;4.12;;
74180;SDS011;62544;50.826;14.354;2023-03-14T02:40:43;6.29;;;4.23;;
74180;SDS011;62544;50.826;14.354;2023-03-14T02:49:31;6.29;;;4.23;;
74180;SDS011;62544;50.826;14.354;2023-03-14T02:53:55;5.83;;;4.64;;
74180;SDS011;62544;50.826;14.354;2023-03-14T02:58:19;5.83;;;4.64;;
74180;SDS011;62544;50.826;14.354;2023-03-14T03:02:43;10.56;;;6.97;;
74180;SDS011;62544;50.826;14.354;2023-03-14T03:07:07;10.56;;;6.97;;
74180;SDS011;62544;50.826;14.354;2023-03-14T03:11:31;10.18;;;6.97;;
74180;SDS011;62544;50.826;14.354;2023-03-14T03:15:55;10.18;;;6.97;;
74180;SDS011;62544;50.826;14.354;2023-03-14T03:20:19;10.18;;;6.97;;
74180;SDS011;62544;50.826;14.354;2023-03-14T03:24:43;9.80;;;6.50;;
74180;SDS011;62544;50.826;14.354;2023-03-14T03:29:07;9.80;;;6.50;;
74180;SDS011;62544;50.826;14.354;2023-03-14T03:33:31;6.86;;;5.17;;
74180;SDS011;62544;50.826;14.354;2023-03-14T03:37:55;6.86;;;5.17;;
74180;SDS011;62544;50.826;14.354;2023-03-14T03:42:19;8.72;;;5.95;;
74180;SDS011;62544;50.826;14.354;2023-03-14T03:46:43;8.72;;;5.95;;
74180;SDS011;62544;50.826;14.354;2023-03-14T03:51:07;6.60;;;4.65;;
74180;SDS011;62544;50.826;14.354;2023-03-14T03:55:31;6.60;;;4.65;;
74180;SDS011;62544;50.826;14.354;2023-03-14T03:59:55;6.60;;;4.65;;
74180;SDS011;62544;50.826;14.354;2023-03-14T04:04:19;8.13;;;5.73;;
74180;SDS011;62544;50.826;14.354;2023-03-14T04:08:43;8.13;;;5.73;;
74180;SDS011;62544;50.826;14.354;2023-03-14T04:13:07;8.67;;;5.62;;
74180;SDS011;62544;50.826;14.354;2023-03-14T04:17:31;8.67;;;5.62;;
74180;SDS011;62544;50.826;14.354;2023-03-14T04:21:55;8.50;;;6.03;;
74180;SDS011;62544;50.826;14.354;2023-03-14T04:26:19;8.50;;;6.03;;
74180;SDS011;62544;50.826;14.354;2023-03-14T04:30:43;9.04;;;5.35;;
74180;SDS011;62544;50.826;14.354;2023-03-14T04:35:07;9.04;;;5.35;;
74180;SDS011;62544;50.826;14.354;2023-03-14T04:39:31;9.04;;;5.35;;
74180;SDS011;62544;50.826;14.354;2023-03-14T04:43:55;10.50;;;6.92;;
74180;SDS011;62544;50.826;14.354;2023-03-14T04:48:19;10.50;;;6.92;;
74180;SDS011;62544;50.826;14.354;2023-03-14T04:52:43;9.60;;;6.84;;
74180;SDS011;62544;50.826;14.354;2023-03-14T04:57:07;9.60;;;6.84;;
74180;SDS011;62544;50.826;14.354;2023-03-14T05:01:31;10.71;;;7.77;;
74180;SDS011;62544;50.826;14.354;2023-03-14T05:05:55;10.71;;;7.77;;
74180;SDS011;62544;50.826;14.354;2023-03-14T05:10:19;10.71;;;7.77;;
74180;SDS011;62544;50.826;14.354;2023-03-14T05:14:43;11.39;;;7.37;;
74180;SDS011;62544;50.826;14.354;2023-03-14T05:19:07;11.39;;;7.37;;
74180;SDS011;62544;50.826;14.354;2023-03-14T05:23:31;16.03;;;9.41;;
74180;SDS011;62544;50.826;14.354;2023-03-14T05:27:55;16.03;;;9.41;;
74180;SDS011;62544;50.826;14.354;2023-03-14T05:32:19;13.75;;;8.67;;
74180;SDS011;62544;50.826;14.354;2023-03-14T05:36:43;13.75;;;8.67;;
74180;SDS011;62544;50.826;14.354;2023-03-14T05:41:07;12.41;;;7.44;;
74180;SDS011;62544;50.826;14.354;2023-03-14T05:45:31;12.41;;;7.44;;
74180;SDS011;62544;50.826;14.354;2023-03-14T05:49:55;12.41;;;7.44;;
74180;SDS011;62544;50.826;14.354;2023-03-14T05:54:19;19.92;;;10.58;;
74180;SDS011;62544;50.826;14.354;2023-03-14T05:58:43;19.92;;;10.58;;
74180;SDS011;62544;50.826;14.354;2023-03-14T06:03:07;11.94;;;8.15;;
74180;SDS011;62544;50.826;14.354;2023-03-14T06:07:31;11.94;;;8.15;;
74180;SDS011;62544;50.826;14.354;2023-03-14T06:11:55;8.95;;;6.07;;
74180;SDS011;62544;50.826;14.354;2023-03-14T06:16:19;8.95;;;6.07;;
74180;SDS011;62544;50.826;14.354;2023-03-14T06:20:43;7.89;;;5.63;;
74180;SDS011;62544;50.826;14.354;2023-03-14T06:25:07;7.89;;;5.63;;
74180;SDS011;62544;50.826;14.354;2023-03-14T06:29:31;7.89;;;5.63;;
74180;SDS011;62544;50.826;14.354;2023-03-14T06:33:55;7.08;;;5.16;;
74180;SDS011;62544;50.826;14.354;2023-03-14T06:38:19;7.08;;;5.16;;
74180;SDS011;62544;50.826;14.354;2023-03-14T06:42:46;6.07;;;4.39;;
74180;SDS011;62544;50.826;14.354;2023-03-14T06:47:07;6.07;;;4.39;;
74180;SDS011;62544;50.826;14.354;2023-03-14T06:51:31;7.11;;;4.69;;
74180;SDS011;62544;50.826;14.354;2023-03-14T06:55:55;7.11;;;4.69;;
74180;SDS011;62544;50.826;14.354;2023-03-14T07:00:19;7.11;;;4.69;;
74180;SDS011;62544;50.826;14.354;2023-03-14T07:04:43;10.89;;;7.01;;
74180;SDS011;62544;50.826;14.354;2023-03-14T07:09:07;10.89;;;7.01;;
74180;SDS011;62544;50.826;14.354;2023-03-14T07:13:31;26.12;;;11.44;;
74180;SDS011;62544;50.826;14.354;2023-03-14T07:17:55;26.12;;;11.44;;
74180;SDS011;62544;50.826;14.354;2023-03-14T07:22:19;10.29;;;5.76;;
74180;SDS011;62544;50.826;14.354;2023-03-14T07:26:43;10.29;;;5.76;;
74180;SDS011;62544;50.826;14.354;2023-03-14T07:31:07;18.18;;;7.76;;
74180;SDS011;62544;50.826;14.354;2023-03-14T07:35:31;18.18;;;7.76;;
74180;SDS011;62544;50.826;14.354;2023-03-14T07:39:55;18.18;;;7.76;;
74180;SDS011;62544;50.826;14.354;2023-03-14T07:44:19;8.03;;;5.28;;
74180;SDS011;62544;50.826;14.354;2023-03-14T07:48:43;8.03;;;5.28;;
74180;SDS011;62544;50.826;14.354;2023-03-14T07:53:07;9.02;;;5.17;;
74180;SDS011;62544;50.826;14.354;2023-03-14T07:57:31;9.02;;;5.17;;
74180;SDS011;62544;50.826;14.354;2023-03-14T08:01:55;20.78;;;7.11;;
74180;SDS011;62544;50.826;14.354;2023-03-14T08:06:19;20.78;;;7.11;;
74180;SDS011;62544;50.826;14.354;2023-03-14T08:10:43;4.63;;;3.28;;
74180;SDS011;62544;50.826;14.354;2023-03-14T08:15:07;4.63;;;3.28;;
74180;SDS011;62544;50.826;14.354;2023-03-14T08:19:31;4.63;;;3.28;;
74180;SDS011;62544;50.826;14.354;2023-03-14T08:23:54;6.31;;;3.32;;
74180;SDS011;62544;50.826;14.354;2023-03-14T08:28:18;6.31;;;3.32;;
74180;SDS011;62544;50.826;14.354;2023-03-14T08:32:42;5.44;;;2.74;;
74180;SDS011;62544;50.826;14.354;2023-03-14T08:37:06;5.44;;;2.74;;
74180;SDS011;62544;50.826;14.354;2023-03-14T08:41:31;4.79;;;2.44;;
74180;SDS011;62544;50.826;14.354;2023-03-14T08:45:58;4.79;;;2.44;;
74180;SDS011;62544;50.826;14.354;2023-03-14T08:50:19;4.79;;;2.44;;
74180;SDS011;62544;50.826;14.354;2023-03-14T08:54:46;5.62;;;2.86;;
74180;SDS011;62544;50.826;14.354;2023-03-14T08:59:07;5.62;;;2.86;;
74180;SDS011;62544;50.826;14.354;2023-03-14T09:03:30;5.39;;;2.91;;
74180;SDS011;62544;50.826;14.354;2023-03-14T09:07:54;5.39;;;2.91;;
74180;SDS011;62544;50.826;14.354;2023-03-14T09:12:18;3.07;;;1.82;;
74180;SDS011;62544;50.826;14.354;2023-03-14T09:16:42;3.07;;;1.82;;
74180;SDS011;62544;50.826;14.354;2023-03-14T09:21:07;3.52;;;1.97;;
74180;SDS011;62544;50.826;14.354;2023-03-14T09:25:30;3.52;;;1.97;;
74180;SDS011;62544;50.826;14.354;2023-03-14T09:29:54;3.52;;;1.97;;
74180;SDS011;62544;50.826;14.354;2023-03-14T09:34:18;2.36;;;1.32;;
74180;SDS011;62544;50.826;14.354;2023-03-14T09:38:43;2.36;;;1.32;;
74180;SDS011;62544;50.826;14.354;2023-03-14T09:43:09;4.58;;;1.55;;
74180;SDS011;62544;50.826;14.354;2023-03-14T09:47:30;4.58;;;1.55;;
74180;SDS011;62544;50.826;14.354;2023-03-14T09:51:55;2.89;;;1.51;;
74180;SDS011;62544;50.826;14.354;2023-03-14T09:56:19;2.89;;;1.51;;
74180;SDS011;62544;50.826;14.354;2023-03-14T10:00:42;3.23;;;1.35;;
74180;SDS011;62544;50.826;14.354;2023-03-14T10:05:19;3.23;;;1.35;;
74180;SDS011;62544;50.826;14.354;2023-03-14T10:09:30;3.23;;;1.35;;
74180;SDS011;62544;50.826;14.354;2023-03-14T10:14:05;4.53;;;1.63;;
74180;SDS011;62544;50.826;14.354;2023-03-14T10:18:18;4.53;;;1.63;;
74180;SDS011;62544;50.826;14.354;2023-03-14T10:22:42;4.48;;;2.47;;
74180;SDS011;62544;50.826;14.354;2023-03-14T10:27:17;4.48;;;2.47;;
74180;SDS011;62544;50.826;14.354;2023-03-14T10:31:45;7.38;;;4.79;;
74180;SDS011;62544;50.826;14.354;2023-03-14T10:36:01;7.38;;;4.79;;
74180;SDS011;62544;50.826;14.354;2023-03-14T10:40:19;7.38;;;4.79;;
74180;SDS011;62544;50.826;14.354;2023-03-14T10:44:42;6.97;;;4.38;;
74180;SDS011;62544;50.826;14.354;2023-03-14T10:49:06;6.97;;;4.38;;
74180;SDS011;62544;50.826;14.354;2023-03-14T10:53:41;6.21;;;2.81;;
74180;SDS011;62544;50.826;14.354;2023-03-14T10:57:54;6.21;;;2.81;;
74180;SDS011;62544;50.826;14.354;2023-03-14T11:06:44;5.10;;;2.39;;
74180;SDS011;62544;50.826;14.354;2023-03-14T11:11:19;4.52;;;1.92;;
74180;SDS011;62544;50.826;14.354;2023-03-14T11:15:32;4.52;;;1.92;;
74180;SDS011;62544;50.826;14.354;2023-03-14T11:28:45;5.31;;;2.69;;
74180;SDS011;62544;50.826;14.354;2023-03-14T11:33:16;3.46;;;2.13;;
74180;SDS011;62544;50.826;14.354;2023-03-14T11:37:34;3.46;;;2.13;;
74180;SDS011;62544;50.826;14.354;2023-03-14T11:41:55;10.68;;;8.42;;
74180;SDS011;62544;50.826;14.354;2023-03-14T11:46:23;10.68;;;8.42;;
74180;SDS011;62544;50.826;14.354;2023-03-14T11:50:43;4.00;;;1.39;;
74180;SDS011;62544;50.826;14.354;2023-03-14T12:03:57;4.71;;;1.57;;
74180;SDS011;62544;50.826;14.354;2023-03-14T12:12:42;11.89;;;8.24;;
74180;SDS011;62544;50.826;14.354;2023-03-14T12:26:07;10.73;;;4.00;;
74180;SDS011;62544;50.826;14.354;2023-03-14T12:30:29;10.73;;;4.00;;
74180;SDS011;62544;50.826;14.354;2023-03-14T12:34:42;8.91;;;6.17;;
74180;SDS011;62544;50.826;14.354;2023-03-14T12:43:31;6.81;;;1.52;;
74180;SDS011;62544;50.826;14.354;2023-03-14T12:47:56;6.81;;;1.52;;
74180;SDS011;62544;50.826;14.354;2023-03-14T12:56:45;1.66;;;0.91;;
74180;SDS011;62544;50.826;14.354;2023-03-14T13:01:06;1.55;;;0.82;;
74180;SDS011;62544;50.826;14.354;2023-03-14T13:05:30;1.55;;;0.82;;
74180;SDS011;62544;50.826;14.354;2023-03-14T13:10:04;1.55;;;0.82;;
74180;SDS011;62544;50.826;14.354;2023-03-14T13:14:18;2.58;;;1.34;;
74180;SDS011;62544;50.826;14.354;2023-03-14T13:18:43;2.58;;;1.34;;
74180;SDS011;62544;50.826;14.354;2023-03-14T13:23:18;2.26;;;0.79;;
74180;SDS011;62544;50.826;14.354;2023-03-14T13:27:31;2.26;;;0.79;;
74180;SDS011;62544;50.826;14.354;2023-03-14T13:32:01;1.94;;;0.92;;
74180;SDS011;62544;50.826;14.354;2023-03-14T13:36:21;1.94;;;0.92;;
74180;SDS011;62544;50.826;14.354;2023-03-14T13:40:42;4.59;;;3.30;;
74180;SDS011;62544;50.826;14.354;2023-03-14T13:45:09;4.59;;;3.30;;
74180;SDS011;62544;50.826;14.354;2023-03-14T13:49:31;4.59;;;3.30;;
74180;SDS011;62544;50.826;14.354;2023-03-14T13:53:54;5.20;;;4.63;;
74180;SDS011;62544;50.826;14.354;2023-03-14T13:58:25;5.20;;;4.63;;
74180;SDS011;62544;50.826;14.354;2023-03-14T14:02:42;3.79;;;0.95;;
74180;SDS011;62544;50.826;14.354;2023-03-14T14:07:07;3.79;;;0.95;;
74180;SDS011;62544;50.826;14.354;2023-03-14T14:11:33;1.58;;;0.75;;
74180;SDS011;62544;50.826;14.354;2023-03-14T14:15:54;1.58;;;0.75;;
74180;SDS011;62544;50.826;14.354;2023-03-14T14:24:42;1.96;;;0.78;;
74180;SDS011;62544;50.826;14.354;2023-03-14T14:29:06;1.96;;;0.78;;
74180;SDS011;62544;50.826;14.354;2023-03-14T14:33:37;2.15;;;0.85;;
74180;SDS011;62544;50.826;14.354;2023-03-14T14:37:54;2.15;;;0.85;;
74180;SDS011;62544;50.826;14.354;2023-03-14T14:42:19;2.02;;;1.01;;
74180;SDS011;62544;50.826;14.354;2023-03-14T14:46:42;2.02;;;1.01;;
74180;SDS011;62544;50.826;14.354;2023-03-14T14:51:06;2.86;;;1.09;;
74180;SDS011;62544;50.826;14.354;2023-03-14T14:55:34;2.86;;;1.09;;
74180;SDS011;62544;50.826;14.354;2023-03-14T14:59:55;2.86;;;1.09;;
74180;SDS011;62544;50.826;14.354;2023-03-14T15:04:18;13.11;;;8.44;;
74180;SDS011;62544;50.826;14.354;2023-03-14T15:08:43;13.11;;;8.44;;
74180;SDS011;62544;50.826;14.354;2023-03-14T15:13:06;4.35;;;2.74;;
74180;SDS011;62544;50.826;14.354;2023-03-14T15:17:30;4.35;;;2.74;;
74180;SDS011;62544;50.826;14.354;2023-03-14T15:21:54;2.55;;;1.32;;
74180;SDS011;62544;50.826;14.354;2023-03-14T15:26:19;2.55;;;1.32;;
74180;SDS011;62544;50.826;14.354;2023-03-14T15:30:42;2.44;;;0.96;;
74180;SDS011;62544;50.826;14.354;2023-03-14T15:35:06;2.44;;;0.96;;
74180;SDS011;62544;50.826;14.354;2023-03-14T15:39:30;2.44;;;0.96;;
74180;SDS011;62544;50.826;14.354;2023-03-14T15:43:54;3.69;;;2.12;;
74180;SDS011;62544;50.826;14.354;2023-03-14T15:48:19;3.69;;;2.12;;
74180;SDS011;62544;50.826;14.354;2023-03-14T15:52:42;40.83;;;19.23;;
74180;SDS011;62544;50.826;14.354;2023-03-14T15:57:09;40.83;;;19.23;;
74180;SDS011;62544;50.826;14.354;2023-03-14T16:01:30;7.13;;;3.60;;
74180;SDS011;62544;50.826;14.354;2023-03-14T16:05:54;7.13;;;3.60;;
74180;SDS011;62544;50.826;14.354;2023-03-14T16:10:18;7.13;;;3.60;;
74180;SDS011;62544;50.826;14.354;2023-03-14T16:14:42;3.31;;;1.65;;
74180;SDS011;62544;50.826;14.354;2023-03-14T16:19:06;3.31;;;1.65;;
74180;SDS011;62544;50.826;14.354;2023-03-14T16:23:30;2.61;;;1.39;;
74180;SDS011;62544;50.826;14.354;2023-03-14T16:27:54;2.61;;;1.39;;
74180;SDS011;62544;50.826;14.354;2023-03-14T16:32:18;10.32;;;6.45;;
74180;SDS011;62544;50.826;14.354;2023-03-14T16:36:42;10.32;;;6.45;;
74180;SDS011;62544;50.826;14.354;2023-03-14T16:41:10;113.82;;;37.84;;
74180;SDS011;62544;50.826;14.354;2023-03-14T16:45:32;113.82;;;37.84;;
74180;SDS011;62544;50.826;14.354;2023-03-14T16:49:54;113.82;;;37.84;;
74180;SDS011;62544;50.826;14.354;2023-03-14T16:54:18;86.10;;;26.81;;
74180;SDS011;62544;50.826;14.354;2023-03-14T16:58:42;86.10;;;26.81;;
74180;SDS011;62544;50.826;14.354;2023-03-14T17:03:06;59.82;;;18.94;;
74180;SDS011;62544;50.826;14.354;2023-03-14T17:07:30;59.82;;;18.94;;
74180;SDS011;62544;50.826;14.354;2023-03-14T17:11:54;6.21;;;4.08;;
74180;SDS011;62544;50.826;14.354;2023-03-14T17:16:21;6.21;;;4.08;;
74180;SDS011;62544;50.826;14.354;2023-03-14T17:20:42;2.46;;;1.36;;
74180;SDS011;62544;50.826;14.354;2023-03-14T17:25:06;2.46;;;1.36;;
74180;SDS011;62544;50.826;14.354;2023-03-14T17:29:30;2.46;;;1.36;;
74180;SDS011;62544;50.826;14.354;2023-03-14T17:33:54;2.92;;;0.99;;
74180;SDS011;62544;50.826;14.354;2023-03-14T17:38:18;2.92;;;0.99;;
74180;SDS011;62544;50.826;14.354;2023-03-14T17:42:42;0.40;;;0.10;;
74180;SDS011;62544;50.826;14.354;2023-03-14T17:47:06;0.40;;;0.10;;
74180;SDS011;62544;50.826;14.354;2023-03-14T17:51:30;0.42;;;0.25;;
74180;SDS011;62544;50.826;14.354;2023-03-14T17:55:54;0.42;;;0.25;;
74180;SDS011;62544;50.826;14.354;2023-03-14T18:00:18;0.42;;;0.25;;
74180;SDS011;62544;50.826;14.354;2023-03-14T18:04:42;0.42;;;0.25;;
74180;SDS011;62544;50.826;14.354;2023-03-14T18:09:06;0.42;;;0.25;;
74180;SDS011;62544;50.826;14.354;2023-03-14T18:13:30;0.42;;;0.25;;
74180;SDS011;62544;50.826;14.354;2023-03-14T18:17:54;0.42;;;0.25;;
74180;SDS011;62544;50.826;14.354;2023-03-14T18:22:18;0.42;;;0.25;;
74180;SDS011;62544;50.826;14.354;2023-03-14T18:26:42;0.42;;;0.25;;
74180;SDS011;62544;50.826;14.354;2023-03-14T18:31:09;0.09;;;0.09;;
74180;SDS011;62544;50.826;14.354;2023-03-14T18:35:30;0.09;;;0.09;;
74180;SDS011;62544;50.826;14.354;2023-03-14T18:39:54;0.09;;;0.09;;
74180;SDS011;62544;50.826;14.354;2023-03-14T18:44:18;0.40;;;0.20;;
74180;SDS011;62544;50.826;14.354;2023-03-14T18:48:42;0.40;;;0.20;;
74180;SDS011;62544;50.826;14.354;2023-03-14T18:53:06;0.40;;;0.20;;
74180;SDS011;62544;50.826;14.354;2023-03-14T18:57:30;0.40;;;0.20;;
74180;SDS011;62544;50.826;14.354;2023-03-14T19:01:54;1.51;;;0.29;;
74180;SDS011;62544;50.826;14.354;2023-03-14T19:06:18;1.51;;;0.29;;
74180;SDS011;62544;50.826;14.354;2023-03-14T19:10:42;1.51;;;0.29;;
74180;SDS011;62544;50.826;14.354;2023-03-14T19:15:06;1.51;;;0.29;;
74180;SDS011;62544;50.826;14.354;2023-03-14T19:19:30;1.51;;;0.29;;
74180;SDS011;62544;50.826;14.354;2023-03-14T19:23:54;2.18;;;0.53;;
74180;SDS011;62544;50.826;14.354;2023-03-14T19:28:18;2.18;;;0.53;;
74180;SDS011;62544;50.826;14.354;2023-03-14T19:32:42;1.45;;;0.48;;
74180;SDS011;62544;50.826;14.354;2023-03-14T19:37:06;1.45;;;0.48;;
74180;SDS011;62544;50.826;14.354;2023-03-14T19:41:30;2.03;;;0.44;;
74180;SDS011;62544;50.826;14.354;2023-03-14T19:45:54;2.03;;;0.44;;
74180;SDS011;62544;50.826;14.354;2023-03-14T19:50:18;2.03;;;0.44;;
74180;SDS011;62544;50.826;14.354;2023-03-14T19:54:42;2.76;;;0.57;;
74180;SDS011;62544;50.826;14.354;2023-03-14T19:59:06;2.76;;;0.57;;
74180;SDS011;62544;50.826;14.354;2023-03-14T20:03:30;2.85;;;0.80;;
74180;SDS011;62544;50.826;14.354;2023-03-14T20:07:54;2.85;;;0.80;;
74180;SDS011;62544;50.826;14.354;2023-03-14T20:12:18;2.95;;;0.70;;
74180;SDS011;62544;50.826;14.354;2023-03-14T20:16:42;2.95;;;0.70;;
74180;SDS011;62544;50.826;14.354;2023-03-14T20:21:06;5.44;;;0.84;;
74180;SDS011;62544;50.826;14.354;2023-03-14T20:25:30;5.44;;;0.84;;
74180;SDS011;62544;50.826;14.354;2023-03-14T20:29:57;5.44;;;0.84;;
74180;SDS011;62544;50.826;14.354;2023-03-14T20:34:18;4.85;;;0.99;;
74180;SDS011;62544;50.826;14.354;2023-03-14T20:38:42;4.85;;;0.99;;
74180;SDS011;62544;50.826;14.354;2023-03-14T20:43:06;4.48;;;0.97;;
74180;SDS011;62544;50.826;14.354;2023-03-14T20:47:30;4.48;;;0.97;;
74180;SDS011;62544;50.826;14.354;2023-03-14T20:51:54;5.00;;;1.02;;
74180;SDS011;62544;50.826;14.354;2023-03-14T20:56:18;5.00;;;1.02;;
74180;SDS011;62544;50.826;14.354;2023-03-14T21:00:46;5.00;;;1.02;;
74180;SDS011;62544;50.826;14.354;2023-03-14T21:05:06;5.00;;;1.02;;
74180;SDS011;62544;50.826;14.354;2023-03-14T21:09:30;5.00;;;1.02;;
74180;SDS011;62544;50.826;14.354;2023-03-14T21:13:54;5.87;;;1.41;;
74180;SDS011;62544;50.826;14.354;2023-03-14T21:18:18;5.87;;;1.41;;
74180;SDS011;62544;50.826;14.354;2023-03-14T21:22:42;8.63;;;1.97;;
74180;SDS011;62544;50.826;14.354;2023-03-14T21:27:06;8.63;;;1.97;;
74180;SDS011;62544;50.826;14.354;2023-03-14T21:31:30;9.46;;;2.39;;
74180;SDS011;62544;50.826;14.354;2023-03-14T21:35:54;9.46;;;2.39;;
74180;SDS011;62544;50.826;14.354;2023-03-14T21:40:18;9.46;;;2.39;;
74180;SDS011;62544;50.826;14.354;2023-03-14T21:44:42;7.75;;;1.52;;
74180;SDS011;62544;50.826;14.354;2023-03-14T21:49:06;7.75;;;1.52;;
74180;SDS011;62544;50.826;14.354;2023-03-14T21:53:33;11.27;;;2.45;;
74180;SDS011;62544;50.826;14.354;2023-03-14T21:57:54;11.27;;;2.45;;
74180;SDS011;62544;50.826;14.354;2023-03-14T22:02:18;8.44;;;1.28;;
74180;SDS011;62544;50.826;14.354;2023-03-14T22:06:42;8.44;;;1.28;;
74180;SDS011;62544;50.826;14.354;2023-03-14T22:11:06;6.22;;;1.07;;
74180;SDS011;62544;50.826;14.354;2023-03-14T22:15:30;6.22;;;1.07;;
74180;SDS011;62544;50.826;14.354;2023-03-14T22:19:53;6.22;;;1.07;;
74180;SDS011;62544;50.826;14.354;2023-03-14T22:24:17;9.93;;;1.76;;
74180;SDS011;62544;50.826;14.354;2023-03-14T22:28:41;9.93;;;1.76;;
74180;SDS011;62544;50.826;14.354;2023-03-14T22:33:05;5.70;;;0.84;;
74180;SDS011;62544;50.826;14.354;2023-03-14T22:37:30;5.70;;;0.84;;
74180;SDS011;62544;50.826;14.354;2023-03-14T22:41:54;8.17;;;1.32;;
74180;SDS011;62544;50.826;14.354;2023-03-14T22:46:18;8.17;;;1.32;;
74180;SDS011;62544;50.826;14.354;2023-03-14T22:50:41;13.27;;;2.73;;
74180;SDS011;62544;50.826;14.354;2023-03-14T22:55:06;13.27;;;2.73;;
74180;SDS011;62544;50.826;14.354;2023-03-14T22:59:30;13.27;;;2.73;;
74180;SDS011;62544;50.826;14.354;2023-03-14T23:03:53;11.18;;;1.62;;
74180;SDS011;62544;50.826;14.354;2023-03-14T23:08:17;11.18;;;1.62;;
74180;SDS011;62544;50.826;14.354;2023-03-14T23:12:42;12.33;;;2.99;;
74180;SDS011;62544;50.826;14.354;2023-03-14T23:17:06;12.33;;;2.99;;
74180;SDS011;62544;50.826;14.354;2023-03-14T23:21:30;10.24;;;2.00;;
74180;SDS011;62544;50.826;14.354;2023-03-14T23:25:54;10.24;;;2.00;;
74180;SDS011;62544;50.826;14.354;2023-03-14T23:30:18;10.24;;;2.00;;
74180;SDS011;62544;50.826;14.354;2023-03-14T23:34:42;9.24;;;1.30;;
74180;SDS011;62544;50.826;14.354;2023-03-14T23:39:06;9.24;;;1.30;;
74180;SDS011;62544;50.826;14.354;2023-03-14T23:43:30;5.66;;;1.35;;
74180;SDS011;62544;50.826;14.354;2023-03-14T23:47:54;5.66;;;1.35;;
74180;SDS011;62544;50.826;14.354;2023-03-14T23:52:18;7.16;;;1.18;;
74180;SDS011;62544;50.826;14.354;2023-03-14T23:56:42;7.16;;;1.18;;
